createdAt,value
2018-06-21T00:02:23.354Z,82.50
2018-06-21T00:05:21.190Z,83.00
2018-06-21T00:08:18.966Z,81.80
2018-06-21T00:11:16.990Z,81.90
2018-06-21T00:14:14.938Z,82.30
2018-06-21T00:17:12.848Z,82.30
2018-06-21T00:20:10.534Z,82.20
2018-06-21T00:23:08.291Z,82.30
2018-06-21T00:26:05.894Z,82.60
2018-06-21T00:29:03.713Z,83.00
2018-06-21T00:32:01.725Z,83.00
2018-06-21T00:34:59.470Z,83.80
2018-06-21T00:37:57.107Z,83.50
2018-06-21T00:40:54.975Z,83.40
2018-06-21T00:43:52.709Z,84.50
2018-06-21T00:46:50.642Z,84.40
2018-06-21T00:49:48.511Z,84.60
2018-06-21T00:52:46.244Z,84.70
2018-06-21T00:55:56.278Z,84.90
2018-06-21T00:58:55.158Z,84.80
2018-06-21T01:01:52.968Z,85.20
2018-06-21T01:04:50.597Z,85.50
2018-06-21T01:07:48.746Z,86.00
2018-06-21T01:10:47.230Z,86.00
2018-06-21T01:13:45.757Z,85.10
2018-06-21T01:16:43.498Z,85.10
2018-06-21T01:19:41.349Z,85.20
2018-06-21T01:22:39.150Z,85.40
2018-06-21T01:25:36.881Z,85.70
2018-06-21T01:28:35.617Z,86.10
2018-06-21T01:31:33.286Z,86.70
2018-06-21T01:34:31.029Z,86.30
2018-06-21T01:37:28.815Z,86.50
2018-06-21T01:40:26.490Z,85.70
2018-06-21T01:43:24.279Z,85.50
2018-06-21T01:46:22.096Z,85.20
2018-06-21T01:49:19.914Z,85.10
2018-06-21T01:52:17.677Z,85.20
2018-06-21T01:55:15.572Z,85.00
2018-06-21T01:58:13.469Z,84.90
2018-06-21T02:01:11.185Z,85.00
2018-06-21T02:04:08.952Z,85.40
2018-06-21T02:07:07.049Z,85.50
2018-06-21T02:10:04.693Z,85.70
2018-06-21T02:13:02.639Z,86.10
2018-06-21T02:16:00.234Z,86.50
2018-06-21T02:18:58.184Z,86.70
2018-06-21T02:21:56.053Z,87.10
2018-06-21T02:24:53.878Z,87.60
2018-06-21T02:27:51.778Z,88.00
2018-06-21T02:30:49.936Z,88.00
2018-06-21T02:33:47.693Z,88.00
2018-06-21T02:36:45.510Z,87.90
2018-06-21T02:39:43.483Z,88.00
2018-06-21T02:42:41.268Z,87.60
2018-06-21T02:45:39.027Z,87.20
2018-06-21T02:48:36.934Z,86.90
2018-06-21T02:51:34.545Z,87.60
2018-06-21T02:54:32.451Z,86.80
2018-06-21T02:57:30.190Z,86.60
2018-06-21T03:00:27.836Z,86.60
2018-06-21T03:03:25.602Z,86.80
2018-06-21T03:06:23.265Z,86.70
2018-06-21T03:09:22.018Z,86.60
2018-06-21T03:12:25.617Z,86.70
2018-06-21T03:15:23.389Z,86.80
2018-06-21T03:18:21.615Z,87.10
2018-06-21T03:21:19.360Z,87.50
2018-06-21T03:24:17.325Z,87.30
2018-06-21T03:27:16.194Z,87.10
2018-06-21T03:30:13.838Z,86.50
2018-06-21T03:33:11.643Z,85.90
2018-06-21T03:36:09.414Z,85.20
2018-06-21T03:39:07.211Z,84.60
2018-06-21T03:42:05.329Z,84.10
2018-06-21T03:45:04.322Z,83.30
2018-06-21T03:48:02.951Z,83.00
2018-06-21T03:51:00.790Z,82.80
2018-06-21T03:53:58.838Z,82.20
2018-06-21T03:56:56.642Z,81.60
2018-06-21T03:59:54.271Z,80.30
2018-06-21T04:02:52.262Z,79.80
2018-06-21T04:05:50.213Z,79.50
2018-06-21T04:08:47.967Z,81.10
2018-06-21T04:11:45.751Z,82.10
2018-06-21T04:14:43.511Z,81.90
2018-06-21T04:17:41.343Z,80.40
2018-06-21T04:20:39.122Z,80.60
2018-06-21T04:23:37.014Z,80.00
2018-06-21T04:26:34.858Z,80.90
2018-06-21T04:29:32.491Z,80.10
2018-06-21T04:32:30.256Z,79.60
2018-06-21T04:35:28.049Z,77.20
2018-06-21T04:38:26.834Z,74.90
2018-06-21T04:41:24.799Z,72.50
2018-06-21T04:44:22.402Z,73.30
2018-06-21T04:47:20.273Z,73.70
2018-06-21T04:50:18.124Z,75.40
2018-06-21T04:53:17.271Z,78.00
2018-06-21T05:05:54.923Z,77.30
2018-06-21T05:08:52.858Z,80.60
2018-06-21T05:11:50.774Z,79.10
2018-06-21T05:14:48.471Z,78.60
2018-06-21T05:17:46.722Z,77.90
2018-06-21T05:20:44.473Z,78.10
2018-06-21T05:23:42.221Z,77.80
2018-06-21T05:26:39.981Z,79.20
2018-06-21T05:29:37.650Z,81.10
2018-06-21T05:32:35.392Z,81.50
2018-06-21T05:35:33.296Z,81.90
2018-06-21T05:38:34.769Z,82.10
2018-06-21T05:41:35.582Z,82.50
2018-06-21T05:44:33.437Z,82.20
2018-06-21T05:47:31.238Z,82.20
2018-06-21T05:50:29.008Z,82.20
2018-06-21T05:53:26.813Z,82.20
2018-06-21T05:56:24.582Z,81.20
2018-06-21T05:59:22.167Z,80.90
2018-06-21T06:02:19.858Z,82.00
2018-06-21T06:05:17.602Z,82.50
2018-06-21T06:08:15.589Z,82.20
2018-06-21T06:11:14.311Z,83.30
2018-06-21T06:14:12.004Z,83.80
2018-06-21T06:17:10.639Z,84.70
2018-06-21T06:20:09.365Z,85.40
2018-06-21T06:23:07.131Z,86.40
2018-06-21T06:26:05.030Z,87.30
2018-06-21T06:29:02.778Z,88.00
2018-06-21T06:32:00.664Z,89.60
2018-06-21T06:34:58.407Z,91.00
2018-06-21T06:37:56.182Z,92.10
2018-06-21T06:40:54.092Z,93.10
2018-06-21T06:43:51.873Z,93.80
2018-06-21T06:46:49.546Z,94.40
2018-06-21T06:49:47.233Z,94.20
2018-06-21T06:52:45.383Z,94.40
2018-06-21T06:55:43.383Z,94.50
2018-06-21T06:58:41.148Z,94.60
2018-06-21T07:01:38.818Z,94.60
2018-06-21T07:04:36.533Z,94.70
2018-06-21T07:07:34.379Z,94.90
2018-06-21T07:10:32.331Z,94.50
2018-06-21T07:13:30.437Z,94.30
2018-06-21T07:16:28.179Z,95.00
2018-06-21T07:19:25.852Z,94.20
2018-06-21T07:22:23.509Z,94.90
2018-06-21T07:25:21.486Z,95.00
2018-06-21T07:28:19.136Z,95.10
2018-06-21T07:31:17.079Z,94.80
2018-06-21T07:34:14.807Z,94.90
2018-06-21T07:37:12.609Z,95.00
2018-06-21T07:40:10.412Z,95.50
2018-06-21T07:43:08.178Z,95.30
2018-06-21T07:46:05.922Z,95.10
2018-06-21T07:49:03.607Z,95.60
2018-06-21T07:52:01.327Z,95.80
2018-06-21T07:54:59.113Z,95.70
2018-06-21T07:57:56.655Z,95.90
2018-06-21T08:00:54.406Z,96.10
2018-06-21T08:03:52.215Z,96.10
2018-06-21T08:06:50.554Z,96.90
2018-06-21T08:09:48.275Z,96.30
2018-06-21T08:12:46.162Z,96.60
2018-06-21T08:15:43.916Z,96.50
2018-06-21T08:18:41.746Z,96.00
2018-06-21T08:21:39.451Z,95.90
2018-06-21T08:24:37.121Z,96.00
2018-06-21T08:27:34.693Z,95.50
2018-06-21T08:30:32.521Z,96.00
2018-06-21T08:33:30.234Z,95.20
2018-06-21T08:36:27.967Z,94.50
2018-06-21T08:39:25.669Z,93.50
2018-06-21T08:42:23.236Z,91.30
2018-06-21T08:45:20.977Z,89.40
2018-06-21T08:48:18.888Z,86.30
2018-06-21T08:51:16.560Z,84.40
2018-06-21T08:54:14.498Z,90.80
2018-06-21T08:57:12.134Z,91.60
2018-06-21T09:00:09.895Z,92.00
2018-06-21T09:03:07.658Z,91.10
2018-06-21T09:06:05.345Z,90.10
2018-06-21T09:09:03.192Z,89.10
2018-06-21T09:12:02.048Z,87.90
2018-06-21T09:15:00.370Z,86.60
2018-06-21T09:17:58.062Z,86.90
2018-06-21T09:20:55.857Z,85.20
2018-06-21T09:23:53.629Z,85.20
2018-06-21T09:26:51.377Z,82.80
2018-06-21T09:29:48.993Z,82.50
2018-06-21T09:32:46.701Z,83.70
2018-06-21T09:35:44.351Z,84.10
2018-06-21T09:38:48.053Z,85.80
2018-06-21T09:41:51.671Z,85.80
2018-06-21T09:45:06.339Z,82.90
2018-06-21T09:48:09.919Z,75.70
2018-06-21T09:51:08.781Z,71.50
2018-06-21T09:54:06.506Z,66.50
2018-06-21T09:57:05.479Z,65.90
2018-06-21T10:00:03.371Z,63.60
2018-06-21T10:03:01.008Z,65.30
2018-06-21T10:05:58.832Z,63.90
2018-06-21T10:08:56.474Z,67.30
2018-06-21T10:11:54.260Z,70.50
2018-06-21T10:14:52.037Z,71.70
2018-06-21T10:17:49.715Z,72.90
2018-06-21T10:20:47.350Z,74.80
2018-06-21T10:23:45.162Z,77.80
2018-06-21T10:26:43.463Z,79.90
2018-06-21T10:29:42.413Z,82.50
2018-06-21T10:32:40.132Z,88.00
2018-06-21T10:35:37.826Z,90.20
2018-06-21T10:38:35.563Z,89.90
2018-06-21T10:41:33.272Z,84.80
2018-06-21T10:44:31.059Z,79.30
2018-06-21T10:47:28.882Z,72.70
2018-06-21T10:50:26.570Z,71.10
2018-06-21T10:53:24.223Z,70.10
2018-06-21T10:56:21.993Z,71.90
2018-06-21T10:59:19.627Z,70.60
2018-06-21T11:02:17.291Z,75.40
2018-06-21T11:05:16.064Z,70.30
2018-06-21T11:08:13.793Z,67.80
2018-06-21T11:11:11.454Z,64.70
2018-06-21T11:14:09.128Z,61.70
2018-06-21T11:17:06.987Z,59.10
2018-06-21T11:20:04.699Z,56.60
2018-06-21T11:23:02.404Z,57.70
2018-06-21T11:26:00.144Z,58.70
2018-06-21T11:28:57.833Z,55.30
2018-06-21T11:31:56.578Z,51.30
2018-06-21T11:34:54.402Z,50.30
2018-06-21T11:37:52.237Z,54.20
2018-06-21T11:40:50.533Z,55.50
2018-06-21T11:43:48.416Z,57.40
2018-06-21T11:46:46.250Z,58.30
2018-06-21T11:49:43.865Z,54.10
2018-06-21T11:52:41.742Z,53.10
2018-06-21T11:55:39.506Z,54.40
2018-06-21T11:58:37.331Z,53.60
2018-06-21T12:01:35.184Z,52.60
2018-06-21T12:04:33.835Z,52.10
2018-06-21T12:07:31.611Z,53.00
2018-06-21T12:10:29.349Z,53.30
2018-06-21T12:13:27.141Z,52.10
2018-06-21T12:16:24.806Z,53.40
2018-06-21T12:19:22.693Z,53.70
2018-06-21T12:22:20.289Z,55.50
2018-06-21T12:25:17.894Z,55.00
2018-06-21T12:28:15.712Z,54.90
2018-06-21T12:31:13.581Z,53.50
2018-06-21T12:34:11.754Z,52.70
2018-06-21T12:37:09.551Z,51.10
2018-06-21T12:40:07.380Z,49.00
2018-06-21T12:43:05.065Z,48.50
2018-06-21T12:46:03.233Z,50.50
2018-06-21T12:49:01.461Z,49.50
2018-06-21T12:51:59.176Z,47.20
2018-06-21T12:54:56.921Z,46.00
2018-06-21T12:57:54.730Z,47.00
2018-06-21T13:00:52.455Z,48.00
2018-06-21T13:03:50.351Z,45.80
2018-06-21T13:06:48.131Z,46.60
2018-06-21T13:09:58.594Z,46.90
2018-06-21T13:14:03.447Z,43.60
2018-06-21T13:17:01.155Z,43.20
2018-06-21T13:19:59.015Z,41.40
2018-06-21T13:22:56.789Z,41.80
2018-06-21T13:25:54.459Z,42.40
2018-06-21T13:28:52.053Z,41.30
2018-06-21T13:31:49.700Z,42.60
2018-06-21T13:34:47.497Z,42.90
2018-06-21T13:37:45.160Z,43.40
2018-06-21T13:40:43.110Z,44.50
2018-06-21T13:43:41.617Z,44.50
2018-06-21T13:46:39.380Z,46.00
2018-06-21T13:49:37.153Z,47.90
2018-06-21T13:52:35.243Z,48.60
2018-06-21T13:55:32.972Z,46.90
2018-06-21T13:58:30.676Z,46.90
2018-06-21T14:01:28.708Z,41.70
2018-06-21T14:04:28.071Z,42.30
2018-06-21T14:07:26.600Z,43.30
2018-06-21T14:10:24.568Z,45.50
2018-06-21T14:13:22.387Z,46.60
2018-06-21T14:16:20.122Z,47.10
2018-06-21T14:19:17.822Z,45.90
2018-06-21T14:22:15.698Z,45.70
2018-06-21T14:25:13.399Z,46.80
2018-06-21T14:28:11.031Z,48.30
2018-06-21T14:31:08.675Z,48.30
2018-06-21T14:34:06.467Z,48.80
2018-06-21T14:37:04.218Z,48.10
2018-06-21T14:40:02.072Z,48.20
2018-06-21T14:42:59.766Z,48.20
2018-06-21T14:45:58.018Z,46.70
2018-06-21T14:48:55.870Z,46.90
2018-06-21T14:51:53.591Z,45.10
2018-06-21T14:54:51.336Z,47.00
2018-06-21T14:57:49.131Z,48.80
2018-06-21T15:00:46.866Z,49.80
2018-06-21T15:03:44.599Z,49.50
2018-06-21T15:06:42.382Z,49.80
2018-06-21T15:09:40.126Z,51.80
2018-06-21T15:12:37.825Z,51.40
2018-06-21T15:15:35.886Z,51.00
2018-06-21T15:18:33.518Z,52.00
2018-06-21T15:21:31.250Z,54.80
2018-06-21T15:24:29.297Z,54.40
2018-06-21T15:27:27.128Z,52.70
2018-06-21T15:30:24.967Z,52.40
2018-06-21T15:33:22.770Z,51.80
2018-06-21T15:36:20.741Z,52.70
2018-06-21T15:39:24.691Z,51.80
2018-06-21T15:42:22.949Z,52.50
2018-06-21T15:45:22.240Z,52.40
2018-06-21T15:48:19.852Z,52.90
2018-06-21T15:51:17.451Z,53.80
2018-06-21T15:54:16.165Z,55.20
2018-06-21T15:57:13.936Z,57.20
2018-06-21T16:00:11.692Z,60.20
2018-06-21T16:03:09.669Z,63.30
2018-06-21T16:06:07.371Z,66.50
2018-06-21T16:09:05.151Z,67.30
2018-06-21T16:12:02.883Z,65.60
2018-06-21T16:15:00.632Z,65.90
2018-06-21T16:17:58.294Z,66.00
2018-06-21T16:20:56.635Z,65.70
2018-06-21T16:23:54.875Z,63.60
2018-06-21T16:26:52.492Z,62.90
2018-06-21T16:29:50.138Z,62.40
2018-06-21T16:32:47.991Z,61.00
2018-06-21T16:35:45.694Z,59.80
2018-06-21T16:38:43.523Z,60.10
2018-06-21T16:41:41.195Z,60.90
2018-06-21T16:44:39.050Z,61.90
2018-06-21T16:47:36.802Z,62.70
2018-06-21T16:50:34.542Z,63.30
2018-06-21T16:53:32.253Z,63.40
2018-06-21T16:56:30.039Z,65.40
2018-06-21T16:59:27.739Z,64.10
2018-06-21T17:02:25.411Z,64.20
2018-06-21T17:05:24.318Z,64.70
2018-06-21T17:08:21.993Z,64.40
2018-06-21T17:11:19.762Z,63.40
2018-06-21T17:14:17.602Z,64.80
2018-06-21T17:17:15.494Z,65.20
2018-06-21T17:20:13.311Z,65.00
2018-06-21T17:23:10.980Z,64.30
2018-06-21T17:26:08.746Z,63.30
2018-06-21T17:29:06.352Z,63.80
2018-06-21T17:32:04.067Z,63.90
2018-06-21T17:35:02.420Z,63.40
2018-06-21T17:38:00.338Z,64.40
2018-06-21T17:40:58.439Z,63.50
2018-06-21T17:43:56.305Z,67.70
2018-06-21T17:46:53.977Z,82.80
2018-06-21T17:49:51.704Z,88.00
2018-06-21T17:52:49.427Z,87.40
2018-06-21T17:55:47.641Z,89.70
2018-06-21T17:58:45.312Z,88.00
2018-06-21T18:01:42.886Z,87.20
2018-06-21T18:04:40.703Z,84.10
2018-06-21T18:07:38.468Z,84.10
2018-06-21T18:10:37.334Z,83.40
2018-06-21T18:13:35.302Z,82.80
2018-06-21T18:16:33.631Z,83.00
2018-06-21T18:19:31.834Z,82.60
2018-06-21T18:22:29.654Z,82.90
2018-06-21T18:25:27.358Z,80.70
2018-06-21T18:28:24.947Z,81.40
2018-06-21T18:31:22.726Z,81.40
2018-06-21T18:34:20.381Z,82.90
2018-06-21T18:37:18.242Z,82.40
2018-06-21T18:40:16.078Z,81.30
2018-06-21T18:43:13.797Z,80.80
2018-06-21T18:46:11.730Z,82.30
2018-06-21T18:49:09.451Z,80.90
2018-06-21T18:52:07.218Z,82.50
2018-06-21T18:55:05.078Z,81.80
2018-06-21T18:58:02.786Z,82.30
2018-06-21T19:01:00.577Z,82.10
2018-06-21T19:03:58.342Z,80.40
2018-06-21T19:07:01.930Z,79.60
2018-06-21T19:10:05.497Z,81.10
2018-06-21T19:13:03.154Z,83.40
2018-06-21T19:16:00.882Z,83.70
2018-06-21T19:18:58.858Z,84.20
2018-06-21T19:21:56.879Z,82.90
2018-06-21T19:24:55.012Z,83.30
2018-06-21T19:27:52.788Z,83.60
2018-06-21T19:30:50.535Z,83.90
2018-06-21T19:33:48.646Z,83.80
2018-06-21T19:36:46.421Z,83.90
2018-06-21T19:39:44.186Z,83.30
2018-06-21T19:42:42.030Z,83.60
2018-06-21T19:45:39.821Z,82.80
2018-06-21T19:48:37.816Z,83.20
2018-06-21T19:51:35.953Z,81.90
2018-06-21T19:54:34.507Z,81.50
2018-06-21T19:57:32.439Z,80.40
2018-06-21T20:00:30.279Z,80.50
2018-06-21T20:03:28.363Z,80.10
2018-06-21T20:06:25.973Z,80.00
2018-06-21T20:09:23.681Z,80.90
2018-06-21T20:12:21.991Z,80.70
2018-06-21T20:15:19.677Z,80.40
2018-06-21T20:18:17.530Z,80.50
2018-06-21T20:21:19.504Z,79.80
2018-06-21T20:24:17.168Z,80.60
2018-06-21T20:27:14.925Z,80.00
2018-06-21T20:30:12.757Z,79.80
2018-06-21T20:33:10.484Z,80.00
2018-06-21T20:36:08.249Z,80.70
2018-06-21T20:39:06.004Z,81.10
2018-06-21T20:42:03.581Z,81.10
2018-06-21T20:45:01.482Z,81.50
2018-06-21T20:47:59.214Z,82.30
2018-06-21T20:50:56.890Z,83.10
2018-06-21T20:53:54.642Z,83.50
2018-06-21T20:56:52.728Z,83.70
2018-06-21T20:59:51.370Z,84.40
2018-06-21T21:02:50.259Z,84.80
2018-06-21T21:05:48.310Z,84.90
2018-06-21T21:08:46.141Z,85.30
2018-06-21T21:11:44.106Z,86.10
2018-06-21T21:14:42.350Z,85.80
2018-06-21T21:17:40.011Z,86.50
2018-06-21T21:20:37.574Z,86.70
2018-06-21T21:23:36.031Z,87.10
2018-06-21T21:26:33.789Z,87.80
2018-06-21T21:29:31.576Z,88.60
2018-06-21T21:32:30.345Z,89.20
2018-06-21T21:35:28.053Z,89.60
2018-06-21T21:38:25.828Z,89.20
2018-06-21T21:41:23.623Z,89.10
2018-06-21T21:44:21.330Z,88.80
2018-06-21T21:47:19.082Z,89.00
2018-06-21T21:50:16.916Z,89.30
2018-06-21T21:53:14.447Z,89.20
2018-06-21T21:56:12.373Z,89.60
2018-06-21T21:59:10.295Z,89.70
2018-06-21T22:02:07.962Z,89.80
2018-06-21T22:05:05.767Z,90.00
2018-06-21T22:08:03.449Z,90.00
2018-06-21T22:11:01.124Z,90.20
2018-06-21T22:14:03.627Z,90.20
2018-06-21T22:17:01.471Z,90.30
2018-06-21T22:19:59.247Z,90.50
2018-06-21T22:22:57.568Z,90.40
2018-06-21T22:25:55.809Z,90.40
2018-06-21T22:28:53.553Z,90.20
2018-06-21T22:31:51.293Z,90.00
2018-06-21T22:34:49.678Z,90.00
2018-06-21T22:37:47.278Z,89.70
2018-06-21T22:40:45.068Z,89.30
2018-06-21T22:43:42.883Z,89.30
2018-06-21T22:46:40.604Z,89.50
2018-06-21T22:49:38.244Z,89.40
2018-06-21T22:52:36.193Z,89.60
2018-06-21T22:55:33.873Z,89.40
2018-06-21T22:58:31.555Z,89.40
2018-06-21T23:01:29.509Z,89.30
2018-06-21T23:04:27.281Z,89.60
2018-06-21T23:07:25.134Z,89.70
2018-06-21T23:10:23.022Z,90.00
2018-06-21T23:13:20.909Z,89.90
2018-06-21T23:16:18.856Z,89.90
2018-06-21T23:19:44.042Z,89.70
2018-06-21T23:22:41.893Z,90.00
2018-06-21T23:25:39.724Z,90.10
2018-06-21T23:28:37.535Z,90.20
2018-06-21T23:31:44.079Z,90.10
2018-06-21T23:34:42.326Z,90.20
2018-06-21T23:37:39.898Z,90.10
2018-06-21T23:40:37.826Z,90.40
2018-06-21T23:43:35.552Z,90.50
2018-06-21T23:46:33.373Z,90.70
2018-06-21T23:49:31.089Z,91.20
2018-06-21T23:52:29.523Z,91.50
2018-06-21T23:55:27.263Z,91.80
2018-06-21T23:58:25.118Z,91.90
